createdAt,value
2019-01-05T00:00:31.560Z,42.60
2019-01-05T00:03:34.337Z,45.80
2019-01-05T00:06:24.740Z,44.10
2019-01-05T00:09:22.814Z,38.50
2019-01-05T00:12:15.258Z,34.13
2019-01-05T00:15:03.396Z,35.37
2019-01-05T00:17:52.052Z,33.57
2019-01-05T00:20:40.090Z,35.30
2019-01-05T00:23:29.768Z,35.43
2019-01-05T00:26:18.426Z,44.10
2019-01-05T00:29:26.632Z,40.60
2019-01-05T00:32:38.838Z,42.97
2019-01-05T00:35:36.810Z,37.50
2019-01-05T00:38:32.528Z,39.23
2019-01-05T00:41:35.008Z,33.87
2019-01-05T00:44:30.007Z,33.10
2019-01-05T00:47:34.327Z,31.37
2019-01-05T00:50:22.778Z,35.17
2019-01-05T00:53:17.882Z,79.07
2019-01-05T00:56:11.033Z,51.53
2019-01-05T00:59:12.600Z,40.17
2019-01-05T01:02:01.046Z,39.53
2019-01-05T01:05:08.542Z,45.87
2019-01-05T01:07:56.581Z,41.80
2019-01-05T01:10:43.492Z,45.83
2019-01-05T01:13:31.736Z,39.10
2019-01-05T01:16:36.262Z,42.33
2019-01-05T01:19:24.196Z,42.50
2019-01-05T01:22:13.669Z,43.67
2019-01-05T01:25:01.611Z,37.17
2019-01-05T01:28:00.194Z,38.23
2019-01-05T01:30:55.507Z,38.50
2019-01-05T01:33:44.771Z,31.67
2019-01-05T01:36:52.470Z,34.67
2019-01-05T01:39:38.154Z,33.53
2019-01-05T01:42:38.378Z,34.40
2019-01-05T01:45:46.098Z,34.07
2019-01-05T01:48:34.733Z,37.53
2019-01-05T01:51:37.517Z,32.33
2019-01-05T01:54:26.270Z,34.63
2019-01-05T01:57:17.077Z,35.60
2019-01-05T02:00:33.584Z,31.27
2019-01-05T02:03:42.512Z,33.17
2019-01-05T02:06:33.817Z,36.90
2019-01-05T02:09:15.312Z,31.00
2019-01-05T02:12:10.008Z,37.00
2019-01-05T02:15:05.623Z,31.83
2019-01-05T02:18:27.384Z,31.73
2019-01-05T02:21:41.504Z,37.07
2019-01-05T02:25:15.828Z,29.70
2019-01-05T02:29:07.559Z,31.00
2019-01-05T02:32:41.782Z,32.97
2019-01-05T02:36:05.151Z,30.23
2019-01-05T02:39:37.629Z,27.40
2019-01-05T02:43:02.021Z,29.53
2019-01-05T02:46:35.425Z,29.47
2019-01-05T02:50:26.335Z,28.07
2019-01-05T02:53:57.077Z,33.27
2019-01-05T02:57:46.043Z,31.60
2019-01-05T03:01:01.833Z,29.37
2019-01-05T03:05:01.962Z,28.00
2019-01-05T03:08:40.586Z,35.50
2019-01-05T03:12:17.580Z,28.13
2019-01-05T03:15:24.658Z,29.57
2019-01-05T03:18:53.248Z,27.37
2019-01-05T03:22:41.595Z,28.40
2019-01-05T03:26:14.289Z,31.43
2019-01-05T03:29:34.683Z,35.87
2019-01-05T03:32:46.074Z,29.27
2019-01-05T03:36:27.666Z,30.50
2019-01-05T03:40:08.542Z,28.13
2019-01-05T03:43:49.112Z,31.30
2019-01-05T03:47:40.231Z,31.10
2019-01-05T03:51:35.955Z,31.23
2019-01-05T03:55:10.281Z,28.83
2019-01-05T03:58:34.662Z,27.23
2019-01-05T04:02:01.111Z,28.07
2019-01-05T04:05:39.431Z,31.30
2019-01-05T04:08:53.069Z,29.53
2019-01-05T04:12:36.811Z,26.50
2019-01-05T04:16:15.744Z,25.03
2019-01-05T04:19:42.490Z,27.03
2019-01-05T04:23:01.453Z,27.73
2019-01-05T04:26:36.186Z,22.70
2019-01-05T04:30:20.958Z,27.80
2019-01-05T04:33:54.563Z,29.87
2019-01-05T04:37:25.203Z,26.73
2019-01-05T04:41:02.394Z,32.87
2019-01-05T04:44:59.451Z,29.23
2019-01-05T04:48:31.519Z,29.60
2019-01-05T04:52:26.533Z,31.07
2019-01-05T04:56:31.062Z,26.50
2019-01-05T05:00:17.367Z,33.50
2019-01-05T05:03:58.756Z,28.33
2019-01-05T05:07:52.128Z,31.33
2019-01-05T05:11:22.355Z,28.43
2019-01-05T05:14:47.471Z,27.20
2019-01-05T05:18:11.885Z,27.20
2019-01-05T05:21:46.586Z,27.50
2019-01-05T05:25:19.991Z,30.43
2019-01-05T05:29:04.351Z,33.47
2019-01-05T05:32:29.048Z,29.50
2019-01-05T05:36:24.264Z,32.07
2019-01-05T05:39:54.490Z,29.40
2019-01-05T05:43:18.165Z,29.67
2019-01-05T05:46:45.422Z,28.17
2019-01-05T05:50:40.317Z,29.27
2019-01-05T05:54:27.145Z,31.83
2019-01-05T05:58:02.906Z,29.40
2019-01-05T06:01:26.578Z,28.40
2019-01-05T06:05:33.054Z,27.53
2019-01-05T06:09:01.439Z,24.10
2019-01-05T06:12:29.108Z,24.23
2019-01-05T06:15:43.873Z,31.20
2019-01-05T06:19:14.922Z,30.30
2019-01-05T06:22:57.641Z,27.90
2019-01-05T06:26:48.863Z,28.40
2019-01-05T06:30:10.282Z,27.37
2019-01-05T06:34:12.460Z,27.17
2019-01-05T06:37:35.110Z,27.50
2019-01-05T06:41:34.932Z,28.37
2019-01-05T06:44:50.620Z,26.40
2019-01-05T06:48:32.112Z,27.50
2019-01-05T06:52:10.121Z,27.47
2019-01-05T06:55:37.893Z,32.00
2019-01-05T06:59:09.247Z,29.60
2019-01-05T07:02:47.257Z,28.50
2019-01-05T07:06:14.823Z,28.23
2019-01-05T07:09:38.395Z,30.10
2019-01-05T07:13:09.340Z,29.27
2019-01-05T07:16:45.601Z,32.13
2019-01-05T07:20:26.077Z,33.03
2019-01-05T07:24:15.965Z,30.03
2019-01-05T07:27:38.412Z,28.40
2019-01-05T07:31:24.717Z,30.50
2019-01-05T07:34:57.914Z,28.27
2019-01-05T07:38:32.342Z,29.00
2019-01-05T07:42:14.754Z,29.93
2019-01-05T07:45:49.795Z,32.83
2019-01-05T07:49:23.812Z,30.57
2019-01-05T07:53:20.972Z,31.73
2019-01-05T07:56:45.158Z,29.10
2019-01-05T08:00:09.754Z,31.40
2019-01-05T08:03:29.638Z,32.07
2019-01-05T08:07:14.102Z,33.87
2019-01-05T08:10:39.106Z,33.80
2019-01-05T08:14:33.196Z,34.03
2019-01-05T08:18:12.639Z,35.80
2019-01-05T08:21:50.546Z,32.93
2019-01-05T08:25:17.703Z,33.87
2019-01-05T08:29:00.321Z,37.20
2019-01-05T08:32:47.959Z,33.60
2019-01-05T08:36:37.846Z,34.03
2019-01-05T08:40:05.718Z,33.80
2019-01-05T08:43:42.704Z,35.93
2019-01-05T08:47:06.277Z,32.63
2019-01-05T08:50:42.649Z,38.57
2019-01-05T08:54:10.931Z,41.60
2019-01-05T08:57:47.406Z,43.83
2019-01-05T09:01:09.136Z,40.87
2019-01-05T09:04:40.386Z,39.77
2019-01-05T09:08:14.709Z,41.30
2019-01-05T09:11:48.727Z,38.73
2019-01-05T09:15:04.004Z,47.67
2019-01-05T09:18:28.601Z,39.83
2019-01-05T09:21:58.624Z,41.27
2019-01-05T09:25:22.093Z,38.67
2019-01-05T09:28:52.935Z,35.03
2019-01-05T09:32:17.224Z,35.20
2019-01-05T09:35:41.718Z,36.87
2019-01-05T09:39:44.611Z,38.47
2019-01-05T09:43:17.500Z,40.03
2019-01-05T09:47:07.698Z,38.33
2019-01-05T09:50:43.661Z,39.23
2019-01-05T09:54:49.421Z,39.50
2019-01-05T09:58:13.504Z,39.17
2019-01-05T10:01:49.673Z,36.63
2019-01-05T10:05:15.720Z,40.37
2019-01-05T10:09:08.464Z,42.13
2019-01-05T10:12:38.833Z,42.13
2019-01-05T10:16:09.133Z,38.83
2019-01-05T10:19:47.948Z,41.07
2019-01-05T10:23:28.004Z,44.00
2019-01-05T10:27:10.624Z,44.97
2019-01-05T10:30:42.489Z,47.03
2019-01-05T10:33:57.972Z,41.47
2019-01-05T10:37:34.757Z,45.60
2019-01-05T10:41:27.613Z,44.57
2019-01-05T10:44:53.333Z,39.73
2019-01-05T10:48:18.129Z,41.67
2019-01-05T10:51:58.709Z,43.00
2019-01-05T10:55:16.135Z,45.97
2019-01-05T10:58:38.682Z,42.47
2019-01-05T11:02:32.360Z,45.53
2019-01-05T11:06:14.568Z,44.77
2019-01-05T11:09:56.263Z,36.30
2019-01-05T11:13:48.610Z,37.43
2019-01-05T11:17:01.227Z,38.13
2019-01-05T11:20:28.176Z,41.77
2019-01-05T11:24:18.065Z,38.40
2019-01-05T11:27:52.596Z,35.77
2019-01-05T11:31:10.025Z,39.87
2019-01-05T11:34:59.910Z,37.90
2019-01-05T11:38:55.330Z,37.27
2019-01-05T11:42:26.376Z,35.60
2019-01-05T11:46:00.905Z,40.03
2019-01-05T11:49:22.328Z,40.40
2019-01-05T11:52:38.832Z,39.73
2019-01-05T11:56:05.375Z,41.97
2019-01-05T11:59:49.223Z,36.80
2019-01-05T12:03:41.158Z,41.07
2019-01-05T12:07:14.057Z,40.40
2019-01-05T12:10:46.837Z,39.43
2019-01-05T12:14:37.337Z,40.07
2019-01-05T12:18:08.592Z,40.73
2019-01-05T12:21:31.651Z,39.83
2019-01-05T12:24:59.727Z,38.50
2019-01-05T12:28:05.078Z,39.57
2019-01-05T12:31:55.780Z,39.93
2019-01-05T12:35:29.799Z,39.87
2019-01-05T12:39:02.277Z,41.53
2019-01-05T12:42:33.017Z,38.33
2019-01-05T12:46:13.690Z,39.70
2019-01-05T12:49:43.315Z,36.43
2019-01-05T12:53:34.216Z,40.97
2019-01-05T12:57:00.964Z,41.30
2019-01-05T13:00:37.129Z,39.93
2019-01-05T13:04:02.031Z,39.83
2019-01-05T13:07:33.796Z,40.83
2019-01-05T13:10:58.493Z,38.87
2019-01-05T13:14:48.793Z,40.73
2019-01-05T13:18:19.634Z,40.30
2019-01-05T13:22:07.781Z,37.13
2019-01-05T13:25:16.608Z,43.37
2019-01-05T13:28:47.968Z,42.30
2019-01-05T13:32:35.393Z,42.50
2019-01-05T13:36:17.910Z,42.57
2019-01-05T13:39:43.939Z,42.43
2019-01-05T13:43:04.848Z,43.70
2019-01-05T13:46:49.514Z,44.17
2019-01-05T13:50:19.843Z,41.07
2019-01-05T13:53:31.744Z,41.50
2019-01-05T13:56:31.149Z,41.07
2019-01-05T13:59:26.151Z,39.87
2019-01-05T14:02:15.216Z,37.20
2019-01-05T14:05:13.287Z,38.30
2019-01-05T14:08:02.656Z,37.83
2019-01-05T14:10:51.950Z,40.43
2019-01-05T14:13:39.964Z,44.80
2019-01-05T14:16:47.362Z,44.13
2019-01-05T14:19:45.429Z,41.87
2019-01-05T14:22:44.017Z,41.83
2019-01-05T14:25:32.673Z,40.83
2019-01-05T14:28:24.701Z,41.97
2019-01-05T14:31:25.953Z,46.73
2019-01-05T14:34:24.025Z,43.43
2019-01-05T14:37:16.057Z,47.30
2019-01-05T14:40:03.793Z,46.17
2019-01-05T14:42:56.129Z,46.70
2019-01-05T14:45:45.297Z,44.03
2019-01-05T14:48:43.470Z,45.17
2019-01-05T14:51:50.966Z,46.87
2019-01-05T14:54:58.462Z,44.80
2019-01-05T14:57:47.926Z,45.10
2019-01-05T15:00:43.142Z,48.77
2019-01-05T15:03:30.568Z,41.87
2019-01-05T15:06:38.367Z,47.30
2019-01-05T15:09:34.086Z,45.63
2019-01-05T15:12:32.671Z,44.40
2019-01-05T15:15:21.940Z,40.93
2019-01-05T15:18:09.876Z,48.47
2019-01-05T15:21:02.012Z,47.70
2019-01-05T15:24:03.158Z,47.73
2019-01-05T15:27:01.437Z,50.17
2019-01-05T15:29:59.817Z,48.93
2019-01-05T15:32:57.893Z,52.33
2019-01-05T15:35:56.171Z,53.63
2019-01-05T15:39:00.591Z,53.70
2019-01-05T15:41:48.529Z,51.60
2019-01-05T15:44:46.808Z,52.67
2019-01-05T15:47:34.851Z,52.30
2019-01-05T15:50:24.525Z,54.93
2019-01-05T15:53:25.877Z,50.83
2019-01-05T15:56:20.878Z,56.97
2019-01-05T15:59:08.922Z,56.07
2019-01-05T16:01:58.184Z,52.13
2019-01-05T16:04:59.229Z,52.67
2019-01-05T16:08:02.426Z,54.50
2019-01-05T16:10:54.660Z,58.03
2019-01-05T16:13:42.588Z,61.90
2019-01-05T16:16:47.327Z,64.43
2019-01-05T16:19:40.076Z,65.77
2019-01-05T16:22:38.457Z,57.20
2019-01-05T16:25:26.910Z,63.10
2019-01-05T16:28:34.608Z,58.70
2019-01-05T16:31:23.770Z,78.60
2019-01-05T16:34:11.912Z,88.93
2019-01-05T16:37:04.149Z,78.77
2019-01-05T16:39:59.663Z,80.07
2019-01-05T16:42:54.874Z,86.00
2019-01-05T16:45:43.011Z,98.00
2019-01-05T16:48:31.357Z,77.70
2019-01-05T16:51:20.626Z,87.57
2019-01-05T16:54:28.431Z,79.47
2019-01-05T16:57:15.649Z,62.77
2019-01-05T17:00:17.205Z,63.47
2019-01-05T17:03:00.238Z,111.57
2019-01-05T17:06:01.371Z,56.70
2019-01-05T17:08:48.999Z,55.23
2019-01-05T17:11:40.114Z,54.67
2019-01-05T17:14:29.389Z,56.97
2019-01-05T17:17:38.001Z,57.30
2019-01-05T17:20:19.571Z,53.70
2019-01-05T17:23:24.318Z,54.97
2019-01-05T17:26:14.202Z,56.50
2019-01-05T17:29:13.289Z,55.00
2019-01-05T17:32:19.258Z,51.87
2019-01-05T17:35:10.443Z,56.57
2019-01-05T17:37:56.564Z,55.27
2019-01-05T17:40:44.716Z,54.17
2019-01-05T17:43:37.585Z,55.47
2019-01-05T17:46:43.412Z,58.50
2019-01-05T17:49:32.679Z,53.50
2019-01-05T17:52:21.845Z,51.93
2019-01-05T17:55:20.329Z,51.50
2019-01-05T17:58:21.887Z,52.67
2019-01-05T18:01:14.327Z,54.53
2019-01-05T18:04:02.190Z,60.27
2019-01-05T18:06:50.221Z,70.47
2019-01-05T18:09:38.353Z,62.27
2019-01-05T18:12:26.295Z,68.43
2019-01-05T18:15:10.532Z,65.93
2019-01-05T18:18:08.831Z,67.20
2019-01-05T18:20:57.049Z,78.00
2019-01-05T18:23:45.807Z,75.87
2019-01-05T18:26:38.126Z,73.43
2019-01-05T18:29:33.276Z,69.20
2019-01-05T18:32:34.602Z,103.00
2019-01-05T18:35:26.864Z,101.90
2019-01-05T18:38:19.179Z,81.03
2019-01-05T18:41:13.969Z,66.70
2019-01-05T18:44:12.459Z,65.23
2019-01-05T18:47:00.817Z,70.37
2019-01-05T18:49:53.376Z,65.53
2019-01-05T18:52:41.289Z,71.47
2019-01-05T18:55:45.812Z,57.93
2019-01-05T18:58:45.115Z,58.27
2019-01-05T19:01:52.918Z,54.13
2019-01-05T19:04:45.275Z,87.20
2019-01-05T19:07:33.442Z,67.23
2019-01-05T19:10:29.016Z,67.63
2019-01-05T19:13:27.738Z,75.00
2019-01-05T19:16:20.350Z,79.87
2019-01-05T19:19:13.506Z,95.97
2019-01-05T19:22:01.383Z,92.73
2019-01-05T19:25:00.338Z,72.47
2019-01-05T19:27:48.277Z,122.70
2019-01-05T19:30:36.340Z,72.17
2019-01-05T19:33:17.796Z,135.23
2019-01-05T19:36:07.089Z,80.17
2019-01-05T19:38:55.208Z,72.20
2019-01-05T19:41:55.525Z,58.90
2019-01-05T19:44:50.743Z,60.30
2019-01-05T19:47:52.197Z,62.93
2019-01-05T19:50:59.793Z,63.10
2019-01-05T19:53:47.935Z,59.50
2019-01-05T19:56:35.777Z,67.47
2019-01-05T19:59:40.193Z,58.63
2019-01-05T20:02:30.075Z,63.73
2019-01-05T20:05:17.806Z,58.20
2019-01-05T20:08:05.844Z,61.37
2019-01-05T20:10:53.989Z,76.50
2019-01-05T20:13:46.123Z,71.53
2019-01-05T20:16:34.160Z,76.13
2019-01-05T20:19:20.961Z,62.07
2019-01-05T20:22:10.240Z,67.80
2019-01-05T20:25:02.374Z,72.10
2019-01-05T20:27:51.641Z,55.10
2019-01-05T20:30:39.682Z,57.30
2019-01-05T20:33:44.003Z,58.83
2019-01-05T20:36:33.268Z,63.73
2019-01-05T20:39:25.299Z,54.37
2019-01-05T20:42:13.240Z,59.03
2019-01-05T20:45:17.563Z,53.07
2019-01-05T20:48:07.590Z,54.17
2019-01-05T20:51:15.140Z,49.20
2019-01-05T20:54:04.407Z,87.10
2019-01-05T20:57:02.586Z,71.27
2019-01-05T21:00:09.878Z,62.00
2019-01-05T21:03:02.112Z,61.63
2019-01-05T21:05:49.946Z,58.17
2019-01-05T21:08:57.441Z,62.20
2019-01-05T21:12:02.580Z,64.40
2019-01-05T21:15:03.829Z,57.37
2019-01-05T21:18:04.970Z,58.17
2019-01-05T21:20:53.016Z,61.27
2019-01-05T21:23:44.843Z,66.90
2019-01-05T21:26:46.193Z,62.17
2019-01-05T21:29:47.442Z,61.93
2019-01-05T21:32:39.578Z,71.37
2019-01-05T21:35:28.845Z,72.20
2019-01-05T21:38:16.680Z,83.07
2019-01-05T21:41:18.134Z,66.57
2019-01-05T21:44:19.483Z,85.30
2019-01-05T21:47:07.420Z,79.50
2019-01-05T21:49:56.585Z,95.87
2019-01-05T21:52:45.853Z,67.37
2019-01-05T21:55:40.957Z,62.13
2019-01-05T21:58:31.762Z,49.70
2019-01-05T22:01:27.070Z,53.97
2019-01-05T22:04:18.685Z,54.13
2019-01-05T22:07:06.738Z,62.40
2019-01-05T22:10:11.464Z,52.40
2019-01-05T22:13:03.498Z,51.97
2019-01-05T22:15:51.434Z,55.93
2019-01-05T22:18:39.779Z,53.60
2019-01-05T22:21:41.437Z,52.13
2019-01-05T22:24:42.992Z,47.13
2019-01-05T22:27:50.794Z,45.53
2019-01-05T22:30:39.039Z,47.00
2019-01-05T22:33:26.668Z,51.73
2019-01-05T22:36:18.393Z,48.30
2019-01-05T22:39:13.498Z,48.37
2019-01-05T22:42:17.818Z,47.77
2019-01-05T22:45:06.986Z,42.27
2019-01-05T22:47:58.914Z,44.70
2019-01-05T22:50:46.543Z,46.10
2019-01-05T22:53:41.751Z,46.70
2019-01-05T22:56:40.029Z,47.47
2019-01-05T22:59:32.265Z,55.90
2019-01-05T23:02:20.203Z,43.10
2019-01-05T23:05:08.346Z,43.90
2019-01-05T23:07:56.590Z,45.20
2019-01-05T23:11:01.422Z,44.53
2019-01-05T23:13:53.454Z,46.07
2019-01-05T23:16:43.953Z,45.07
2019-01-05T23:19:51.549Z,43.03
2019-01-05T23:22:35.387Z,47.93
2019-01-05T23:25:23.837Z,50.17
2019-01-05T23:28:14.949Z,46.83
2019-01-05T23:31:03.225Z,45.80
2019-01-05T23:33:58.502Z,50.60
2019-01-05T23:37:03.130Z,48.03
2019-01-05T23:40:10.523Z,53.03
2019-01-05T23:42:52.722Z,48.30
2019-01-05T23:45:37.786Z,51.57
2019-01-05T23:48:25.627Z,51.23
2019-01-05T23:51:17.867Z,57.63
2019-01-05T23:54:13.790Z,50.93
2019-01-05T23:57:15.350Z,54.27
